Time;durP1;ratioP1;P1;durP2;ratioP2;P2;SDS_P1;SDS_P2;PMS_P1;PMS_P2;Temp;Humidity;BMP_temperature;BMP_pressure;BME280_temperature;BME280_humidity;BME280_pressure;Samples;Min_cycle;Max_cycle;Signal;HPM_P1;HPM_P2
2021/01/29 00:00:32;;;;;;;1999.90;999.90;;;10.10;99.90;;;;;;5051529;28;20644;-63
2021/01/29 00:02:59;;;;;;;1999.90;999.90;;;10.10;99.90;;;;;;5052170;28;20403;-63
2021/01/29 00:05:31;;;;;;;1999.90;999.90;;;10.10;99.90;;;;;;5052198;28;20797;-63
2021/01/29 00:07:57;;;;;;;1999.90;999.90;;;10.10;99.90;;;;;;5051783;28;21006;-63
2021/01/29 00:10:22;;;;;;;1999.90;999.90;;;10.10;99.90;;;;;;5051503;28;20422;-63
2021/01/29 00:12:48;;;;;;;1999.90;999.90;;;10.10;99.90;;;;;;5052252;28;20239;-63
2021/01/29 00:15:17;;;;;;;1999.90;999.90;;;10.10;99.90;;;;;;5051869;28;20212;-63
2021/01/29 00:17:43;;;;;;;1999.90;999.90;;;10.10;99.90;;;;;;5051717;28;20506;-63
2021/01/29 00:20:13;;;;;;;1999.90;999.90;;;10.10;99.90;;;;;;5051419;28;20427;-63
2021/01/29 00:22:39;;;;;;;1999.90;999.90;;;10.00;99.90;;;;;;5051691;28;20406;-64
2021/01/29 00:25:10;;;;;;;1999.90;999.90;;;10.00;99.90;;;;;;5051495;28;20412;-62
2021/01/29 00:27:36;;;;;;;1999.90;999.90;;;9.90;99.90;;;;;;5051781;28;20412;-63
2021/01/29 00:30:04;;;;;;;1999.90;999.90;;;10.00;99.90;;;;;;5051219;28;20427;-64
2021/01/29 00:32:30;;;;;;;1999.90;999.90;;;10.00;99.90;;;;;;5051383;28;20834;-64
2021/01/29 00:34:56;;;;;;;1999.90;999.90;;;10.00;99.90;;;;;;5051415;28;20485;-63
2021/01/29 00:37:21;;;;;;;1999.90;999.90;;;10.00;99.90;;;;;;5051416;28;20170;-63
2021/01/29 00:39:47;;;;;;;1999.90;999.90;;;10.00;99.90;;;;;;5050988;28;20189;-63
2021/01/29 00:42:13;;;;;;;1999.90;999.90;;;10.00;99.90;;;;;;5051367;28;20187;-63
2021/01/29 00:44:38;;;;;;;1999.90;999.90;;;9.90;99.90;;;;;;5051200;28;20184;-64
2021/01/29 00:47:04;;;;;;;1999.90;999.90;;;9.90;99.90;;;;;;5051220;28;20640;-63
2021/01/29 00:49:29;;;;;;;1999.90;999.90;;;9.90;99.90;;;;;;5050769;28;20209;-63
2021/01/29 00:51:55;;;;;;;1999.90;999.90;;;9.90;99.90;;;;;;5051139;28;20248;-63
2021/01/29 00:54:21;;;;;;;1999.90;999.90;;;9.90;99.90;;;;;;5050885;28;20264;-64
2021/01/29 00:56:46;;;;;;;1999.90;999.90;;;9.80;99.90;;;;;;5051102;28;20652;-64
2021/01/29 00:59:12;;;;;;;1999.90;999.90;;;9.90;99.90;;;;;;5050747;28;20188;-64
2021/01/29 01:01:37;;;;;;;1999.90;999.90;;;9.80;99.90;;;;;;5051136;28;20164;-64
2021/01/29 01:04:03;;;;;;;1999.90;999.90;;;9.70;99.90;;;;;;5051034;28;20175;-64
2021/01/29 01:06:28;;;;;;;1999.90;999.90;;;9.70;99.90;;;;;;5051072;28;20184;-64
2021/01/29 01:08:54;;;;;;;1999.90;999.90;;;9.60;99.90;;;;;;5050521;28;20191;-64
2021/01/29 01:11:20;;;;;;;1999.90;999.90;;;9.60;99.90;;;;;;5051002;28;20657;-64
2021/01/29 01:13:45;;;;;;;1999.90;999.90;;;9.50;99.90;;;;;;5050169;28;20224;-64
2021/01/29 01:16:11;;;;;;;1999.90;999.90;;;9.50;99.90;;;;;;5050954;28;20166;-64
2021/01/29 01:18:36;;;;;;;1999.90;999.90;;;9.50;99.90;;;;;;5050644;28;20188;-64
2021/01/29 01:21:02;;;;;;;1999.90;999.90;;;9.50;99.90;;;;;;5050847;28;20189;-64
2021/01/29 01:23:28;;;;;;;1999.90;999.90;;;9.50;99.90;;;;;;5050730;28;20328;-64
2021/01/29 01:25:54;;;;;;;1999.90;999.90;;;9.50;99.90;;;;;;5050726;28;20863;-64
2021/01/29 01:28:19;;;;;;;1999.90;999.90;;;9.40;99.90;;;;;;5050476;28;20170;-64
2021/01/29 01:30:45;;;;;;;1999.90;999.90;;;9.40;99.90;;;;;;5050603;28;20187;-64
2021/01/29 01:33:10;;;;;;;1999.90;999.90;;;9.40;99.90;;;;;;5050579;28;20178;-64
2021/01/29 01:35:36;;;;;;;1999.90;999.90;;;9.40;99.90;;;;;;5050571;28;20242;-64
2021/01/29 01:38:04;;;;;;;1999.90;999.90;;;9.30;99.90;;;;;;5050540;28;20704;-64
2021/01/29 01:40:36;;;;;;;1999.90;999.90;;;9.30;99.90;;;;;;5050303;28;20412;-64
2021/01/29 01:43:04;;;;;;;1999.90;999.90;;;9.20;99.90;;;;;;5050535;28;20490;-63
2021/01/29 01:45:29;;;;;;;1999.90;999.90;;;9.30;99.90;;;;;;5050486;28;20438;-64
2021/01/29 01:48:03;;;;;;;1999.90;999.90;;;9.40;99.90;;;;;;5050555;28;20430;-64
2021/01/29 01:50:36;;;;;;;1999.90;999.90;;;9.40;99.90;;;;;;5050096;28;20208;-64
2021/01/29 01:53:04;;;;;;;1999.90;999.90;;;9.30;99.90;;;;;;5050377;28;20395;-64
2021/01/29 01:55:34;;;;;;;1999.90;999.90;;;9.40;99.90;;;;;;5050361;28;20456;-64
2021/01/29 01:58:00;;;;;;;1999.90;999.90;;;9.40;99.90;;;;;;5050443;28;20394;-64
2021/01/29 02:00:29;;;;;;;1999.90;999.90;;;9.50;99.90;;;;;;5050125;28;20410;-63
2021/01/29 02:03:17;;;;;;;1999.90;999.90;;;9.50;99.90;;;;;;5050394;28;20398;-64
2021/01/29 02:05:43;;;;;;;1999.90;999.90;;;9.50;99.90;;;;;;5049956;28;20450;-64
2021/01/29 02:08:11;;;;;;;1999.90;999.90;;;9.50;99.90;;;;;;5050065;28;20825;-64
2021/01/29 02:10:37;;;;;;;1999.90;999.90;;;9.50;99.90;;;;;;5050628;28;20504;-64
2021/01/29 02:13:05;;;;;;;1999.90;999.90;;;9.50;99.90;;;;;;5050303;28;20907;-64
2021/01/29 02:15:37;;;;;;;1999.90;999.90;;;9.50;99.90;;;;;;5050161;28;20454;-64
2021/01/29 02:18:11;;;;;;;1999.90;999.90;;;9.50;99.90;;;;;;5050216;28;20404;-64
2021/01/29 02:21:10;;;;;;;1999.90;999.90;;;9.50;99.90;;;;;;5050251;28;20427;-63
2021/01/29 02:23:57;;;;;;;1999.90;999.90;;;9.50;99.90;;;;;;5050661;28;20406;-64
2021/01/29 02:26:29;;;;;;;1999.90;999.90;;;9.40;99.90;;;;;;5053860;28;20402;-64
2021/01/29 02:29:28;;;;;;;1999.90;999.90;;;9.30;99.90;;;;;;5053522;28;20422;-64
2021/01/29 02:32:06;;;;;;;1999.90;999.90;;;9.30;99.90;;;;;;5053864;28;20399;-63
2021/01/29 02:35:10;;;;;;;1999.90;999.90;;;9.30;99.90;;;;;;5053711;28;20449;-64
2021/01/29 02:38:07;;;;;;;1999.90;999.90;;;9.30;99.90;;;;;;5053672;28;20405;-64
2021/01/29 02:40:56;;;;;;;1999.90;999.90;;;9.30;99.90;;;;;;5053506;28;20422;-63
2021/01/29 02:44:03;;;;;;;1999.90;999.90;;;9.30;99.90;;;;;;5053721;28;20398;-63
2021/01/29 02:46:43;;;;;;;1999.90;999.90;;;9.20;99.90;;;;;;5053798;28;20432;-64
2021/01/29 02:49:38;;;;;;;1999.90;999.90;;;9.20;99.90;;;;;;5053112;28;20433;-64
2021/01/29 02:52:21;;;;;;;1999.90;999.90;;;9.20;99.90;;;;;;5045896;28;20452;-64
2021/01/29 02:54:57;;;;;;;1999.90;999.90;;;9.20;99.90;;;;;;5053373;28;20453;-63
2021/01/29 02:57:33;;;;;;;1999.90;999.90;;;9.20;99.90;;;;;;5053305;28;20401;-63
2021/01/29 03:00:08;;;;;;;1999.90;999.90;;;9.20;99.90;;;;;;5052946;28;20463;-64
2021/01/29 03:02:47;;;;;;;1999.90;999.90;;;9.20;99.90;;;;;;5053271;28;20675;-64
2021/01/29 03:05:23;;;;;;;1999.90;999.90;;;9.30;99.90;;;;;;5053158;28;20394;-64
2021/01/29 03:08:08;;;;;;;1999.90;999.90;;;9.30;99.90;;;;;;5053036;28;20489;-64
2021/01/29 03:10:51;;;;;;;1999.90;999.90;;;9.30;99.90;;;;;;5052961;28;20480;-64
2021/01/29 03:13:35;;;;;;;1999.90;999.90;;;9.30;99.90;;;;;;5053061;28;20398;-64
2021/01/29 03:16:20;;;;;;;1999.90;999.90;;;9.40;99.90;;;;;;5052918;28;20452;-64
2021/01/29 03:18:53;;;;;;;1999.90;999.90;;;9.40;99.90;;;;;;5052646;28;20425;-64
2021/01/29 03:21:25;;;;;;;1999.90;999.90;;;9.30;99.90;;;;;;5052782;28;20410;-64
2021/01/29 03:24:09;;;;;;;1999.90;999.90;;;9.30;99.90;;;;;;5052845;28;20399;-64
2021/01/29 03:26:43;;;;;;;1999.90;999.90;;;9.30;99.90;;;;;;5052738;28;20400;-64
2021/01/29 03:29:15;;;;;;;1999.90;999.90;;;9.30;99.90;;;;;;5052403;28;20459;-63
2021/01/29 03:31:43;;;;;;;1999.90;999.90;;;9.40;99.90;;;;;;5052670;28;20428;-64
2021/01/29 03:34:24;;;;;;;1999.90;999.90;;;9.30;99.90;;;;;;5052475;28;20478;-64
2021/01/29 03:37:02;;;;;;;1999.90;999.90;;;9.40;99.90;;;;;;5051841;28;20472;-63
2021/01/29 03:39:36;;;;;;;1999.90;999.90;;;9.40;99.90;;;;;;5052230;28;20430;-64
2021/01/29 03:42:06;;;;;;;1999.90;999.90;;;9.40;99.90;;;;;;5052579;28;20413;-64
2021/01/29 03:44:53;;;;;;;1999.90;999.90;;;9.40;99.90;;;;;;5052410;28;20390;-64
2021/01/29 03:47:34;;;;;;;1999.90;999.90;;;9.40;99.90;;;;;;5052302;28;20398;-63
2021/01/29 03:50:34;;;;;;;1999.90;999.90;;;9.30;99.90;;;;;;5051904;28;20963;-63
2021/01/29 03:53:21;;;;;;;1999.90;999.90;;;9.30;99.90;;;;;;4970926;28;20439;-64
2021/01/29 03:56:09;;;;;;;1999.90;999.90;;;9.30;99.90;;;;;;5046626;28;20475;-64
2021/01/29 03:59:04;;;;;;;1999.90;999.90;;;9.30;99.90;;;;;;5010499;28;20406;-64
2021/01/29 04:01:53;;;;;;;1999.90;999.90;;;9.20;99.90;;;;;;5052030;28;20408;-64
2021/01/29 04:04:35;;;;;;;1999.90;999.90;;;9.20;99.90;;;;;;5052244;28;20456;-64
2021/01/29 04:07:22;;;;;;;1999.90;999.90;;;9.30;99.90;;;;;;5051948;28;20394;-64
2021/01/29 04:09:59;;;;;;;1999.90;999.90;;;9.20;99.90;;;;;;5051568;28;20437;-64
2021/01/29 04:12:38;;;;;;;1999.90;999.90;;;9.20;99.90;;;;;;5051883;28;20414;-64
2021/01/29 04:15:18;;;;;;;1999.90;999.90;;;9.20;99.90;;;;;;5051913;28;20846;-64
2021/01/29 04:18:04;;;;;;;1999.90;999.90;;;9.20;99.90;;;;;;5052139;28;20459;-64
2021/01/29 04:20:42;;;;;;;1999.90;999.90;;;9.30;99.90;;;;;;5051509;28;20418;-64
2021/01/29 04:23:18;;;;;;;1999.90;999.90;;;9.40;99.90;;;;;;5051971;28;20408;-63
2021/01/29 04:25:51;;;;;;;1999.90;999.90;;;9.40;99.90;;;;;;5051922;28;20398;-64
2021/01/29 04:28:19;;;;;;;1999.90;999.90;;;9.40;99.90;;;;;;5051326;28;20407;-64
2021/01/29 04:30:50;;;;;;;1999.90;999.90;;;9.50;99.90;;;;;;5051513;28;20473;-64
2021/01/29 04:33:23;;;;;;;1999.90;999.90;;;9.60;99.90;;;;;;5051541;28;20402;-64
2021/01/29 04:35:51;;;;;;;1999.90;999.90;;;9.70;99.90;;;;;;5053167;22;20486;-66
2021/01/29 04:38:23;;;;;;;1999.90;999.90;;;9.60;99.90;;;;;;5031484;28;20429;-65
2021/01/29 04:40:55;;;;;;;1999.90;999.90;;;9.60;99.90;;;;;;5031662;28;20403;-65
2021/01/29 04:43:38;;;;;;;1999.90;999.90;;;9.60;99.90;;;;;;5031418;28;20406;-65
2021/01/29 04:46:18;;;;;;;1999.90;999.90;;;9.60;99.90;;;;;;5031486;28;20974;-65
2021/01/29 04:49:10;;;;;;;1999.90;999.90;;;9.60;99.90;;;;;;5030272;28;20399;-65
2021/01/29 04:51:55;;;;;;;1999.90;999.90;;;9.70;99.90;;;;;;5031094;28;20539;-65
2021/01/29 04:54:32;;;;;;;1999.90;999.90;;;9.60;99.90;;;;;;5031154;28;20470;-65
2021/01/29 04:57:28;;;;;;;1999.90;999.90;;;9.60;99.90;;;;;;5031345;28;20778;-65
2021/01/29 05:00:15;;;;;;;1999.90;999.90;;;9.60;99.90;;;;;;5030918;28;20400;-65
2021/01/29 05:03:08;;;;;;;1999.90;999.90;;;9.70;99.90;;;;;;5031237;28;20395;-64
2021/01/29 05:05:47;;;;;;;1999.90;999.90;;;9.70;99.90;;;;;;5031376;28;20410;-65
2021/01/29 05:08:18;;;;;;;1999.90;999.90;;;9.60;99.90;;;;;;5030889;28;20430;-66
2021/01/29 05:11:13;;;;;;;1999.90;999.90;;;9.60;99.90;;;;;;5031000;28;20395;-65
2021/01/29 05:13:48;;;;;;;1999.90;999.90;;;9.60;99.90;;;;;;5030940;28;20406;-67
2021/01/29 05:16:27;;;;;;;1999.90;999.90;;;9.60;99.90;;;;;;5030891;28;20872;-66
2021/01/29 05:19:11;;;;;;;1999.90;999.90;;;9.50;99.90;;;;;;5030673;28;20417;-65
2021/01/29 05:21:54;;;;;;;1999.90;999.90;;;9.60;99.90;;;;;;5030890;28;20399;-66
2021/01/29 05:24:53;;;;;;;1999.90;999.90;;;9.50;99.90;;;;;;5030804;28;20423;-66
2021/01/29 05:27:40;;;;;;;1999.90;999.90;;;9.50;99.90;;;;;;5028101;28;20771;-66
2021/01/29 05:31:01;;;;;;;1999.90;999.90;;;9.60;99.90;;;;;;5030889;28;20410;-67
2021/01/29 05:33:29;;;;;;;1999.90;999.90;;;9.70;99.90;;;;;;5007727;28;20419;-66
2021/01/29 05:36:07;;;;;;;1999.90;999.90;;;9.70;99.90;;;;;;5030553;28;20929;-67
2021/01/29 05:39:12;;;;;;;1999.90;999.90;;;9.80;99.90;;;;;;5030572;28;20410;-66
2021/01/29 05:41:59;;;;;;;1999.90;999.90;;;9.80;99.90;;;;;;5030831;28;20482;-66
2021/01/29 05:44:30;;;;;;;1999.90;999.90;;;9.70;99.90;;;;;;5030723;28;20423;-66
2021/01/29 05:47:05;;;;;;;1999.90;999.90;;;9.70;99.90;;;;;;5030728;28;20848;-65
2021/01/29 05:49:38;;;;;;;1999.90;999.90;;;9.70;99.90;;;;;;5030427;28;20399;-66
2021/01/29 05:52:29;;;;;;;1999.90;999.90;;;9.80;99.90;;;;;;5030772;28;20414;-66
2021/01/29 05:54:58;;;;;;;1999.90;999.90;;;9.80;99.90;;;;;;5030536;28;20455;-66
2021/01/29 05:57:35;;;;;;;1999.90;999.90;;;9.90;99.90;;;;;;5030941;28;20759;-66
2021/01/29 06:00:34;;;;;;;1999.90;999.90;;;9.90;99.90;;;;;;5033250;28;20486;-66
2021/01/29 06:03:21;;;;;;;1999.90;999.90;;;10.00;99.90;;;;;;5034391;28;21097;-66
2021/01/29 06:06:17;;;;;;;1999.90;999.90;;;10.10;99.90;;;;;;5034326;28;20943;-66
2021/01/29 06:09:08;;;;;;;1999.90;999.90;;;10.00;99.90;;;;;;5034195;28;20900;-66
2021/01/29 06:11:53;;;;;;;1999.90;999.90;;;10.00;99.90;;;;;;5034339;28;20417;-65
2021/01/29 06:14:24;;;;;;;1999.90;999.90;;;9.90;99.90;;;;;;5034151;28;20463;-66
2021/01/29 06:17:08;;;;;;;1999.90;999.90;;;9.90;99.90;;;;;;5034227;28;20408;-66
2021/01/29 06:20:11;;;;;;;1999.90;999.90;;;10.00;99.90;;;;;;5034011;28;20388;-66
2021/01/29 06:22:55;;;;;;;1999.90;999.90;;;10.00;99.90;;;;;;5034225;28;20453;-65
2021/01/29 06:25:27;;;;;;;1999.90;999.90;;;10.00;99.90;;;;;;5034232;28;20434;-64
2021/01/29 06:28:08;;;;;;;1999.90;999.90;;;10.00;99.90;;;;;;5034286;28;20389;-66
2021/01/29 06:31:01;;;;;;;1999.90;999.90;;;10.00;99.90;;;;;;5033923;28;20420;-66
2021/01/29 06:33:45;;;;;;;1999.90;999.90;;;10.00;99.90;;;;;;5033801;28;20431;-66
2021/01/29 06:36:38;;;;;;;1999.90;999.90;;;9.90;99.90;;;;;;5033629;28;20469;-66
2021/01/29 06:39:23;;;;;;;1999.90;999.90;;;9.80;99.90;;;;;;5033498;28;20415;-66
2021/01/29 06:42:14;;;;;;;1999.90;999.90;;;9.70;99.90;;;;;;5033809;28;20447;-68
2021/01/29 06:44:56;;;;;;;1999.90;999.90;;;9.60;99.90;;;;;;5026024;28;20527;-67
2021/01/29 06:47:28;;;;;;;1999.90;999.90;;;9.60;99.90;;;;;;5033600;28;20400;-69
2021/01/29 06:50:05;;;;;;;1999.90;999.90;;;9.50;99.90;;;;;;5033660;28;20928;-69
2021/01/29 06:52:58;;;;;;;1999.90;999.90;;;9.50;99.90;;;;;;5033464;28;20404;-69
2021/01/29 06:55:27;;;;;;;1999.90;999.90;;;9.50;99.90;;;;;;5033377;28;20463;-69
2021/01/29 06:58:37;;;;;;;1999.90;999.90;;;9.50;99.90;;;;;;5033392;28;20395;-69
2021/01/29 07:01:11;;;;;;;1999.90;999.90;;;9.40;99.90;;;;;;5022869;28;20415;-69
2021/01/29 07:04:07;;;;;;;1999.90;999.90;;;9.40;99.90;;;;;;5033333;28;20387;-69
2021/01/29 07:06:51;;;;;;;1999.90;999.90;;;9.40;99.90;;;;;;5033310;28;20391;-69
2021/01/29 07:09:28;;;;;;;1999.90;999.90;;;9.40;99.90;;;;;;5032916;28;20738;-70
2021/01/29 07:11:59;;;;;;;1999.90;999.90;;;9.40;99.90;;;;;;5032167;28;20896;-70
2021/01/29 07:14:39;;;;;;;1999.90;999.90;;;9.30;99.90;;;;;;5032948;28;20490;-70
2021/01/29 07:17:04;;;;;;;1999.90;999.90;;;9.40;99.90;;;;;;5033052;28;20406;-70
2021/01/29 07:19:49;;;;;;;1999.90;999.90;;;9.30;99.90;;;;;;5032779;28;20404;-70
2021/01/29 07:22:47;;;;;;;1999.90;999.90;;;9.30;99.90;;;;;;5032923;28;20173;-71
2021/01/29 07:25:47;;;;;;;1999.90;999.90;;;9.30;99.90;;;;;;5032912;28;20455;-71
2021/01/29 07:28:22;;;;;;;1999.90;999.90;;;9.30;99.90;;;;;;4995726;28;20418;-71
2021/01/29 07:31:02;;;;;;;1999.90;999.90;;;9.20;99.90;;;;;;5032829;28;20411;-70
2021/01/29 07:33:58;;;;;;;1999.90;999.90;;;9.10;99.90;;;;;;5032745;28;20407;-69
2021/01/29 07:37:01;;;;;;;1999.90;999.90;;;9.10;99.90;;;;;;5032608;28;20434;-69
2021/01/29 07:40:02;;;;;;;1999.90;999.90;;;9.00;99.90;;;;;;5032550;28;20453;-70
2021/01/29 07:42:48;;;;;;;1999.90;999.90;;;9.00;99.90;;;;;;5032707;28;20407;-71
2021/01/29 07:45:24;;;;;;;1999.90;999.90;;;9.00;99.90;;;;;;5032562;28;20434;-70
2021/01/29 07:48:33;;;;;;;1999.90;999.90;;;8.90;99.90;;;;;;5032824;28;20943;-69
2021/01/29 07:51:09;;;;;;;1999.90;999.90;;;9.00;99.90;;;;;;5032426;28;20411;-68
2021/01/29 07:53:37;;;;;;;1999.90;999.90;;;9.10;99.90;;;;;;5032593;28;20472;-69
2021/01/29 07:56:27;;;;;;;1999.90;999.90;;;9.20;99.90;;;;;;5032296;28;20436;-69
2021/01/29 07:59:25;;;;;;;1999.90;999.90;;;9.20;99.90;;;;;;5032228;28;20763;-69
2021/01/29 08:01:59;;;;;;;1999.90;999.90;;;9.30;99.90;;;;;;5032528;28;20392;-70
2021/01/29 08:05:06;;;;;;;1999.90;999.90;;;9.40;99.90;;;;;;5032529;28;20435;-70
2021/01/29 08:07:39;;;;;;;1999.90;999.90;;;9.50;99.90;;;;;;5032432;28;20403;-70
2021/01/29 08:10:10;;;;;;;1999.90;999.90;;;9.50;99.90;;;;;;5032017;28;20394;-70
2021/01/29 08:12:49;;;;;;;1999.90;999.90;;;9.60;99.90;;;;;;5032036;28;20406;-71
2021/01/29 08:16:00;;;;;;;1999.90;999.90;;;9.60;99.90;;;;;;5031760;28;20462;-70
2021/01/29 08:18:39;;;;;;;1999.90;999.90;;;9.70;99.90;;;;;;4989758;28;20407;-70
2021/01/29 08:21:49;;;;;;;1999.90;999.90;;;9.70;99.90;;;;;;5026838;28;20416;-70
2021/01/29 08:24:26;;;;;;;1999.90;999.90;;;9.70;99.90;;;;;;5021020;28;20777;-71
2021/01/29 08:27:19;;;;;;;1999.90;999.90;;;9.70;99.90;;;;;;5031831;28;20438;-69
2021/01/29 08:30:10;;;;;;;1999.90;999.90;;;9.60;99.90;;;;;;5031472;28;20468;-69
2021/01/29 08:32:57;;;;;;;1999.90;999.90;;;9.60;99.90;;;;;;5031592;28;20776;-69
2021/01/29 08:35:59;;;;;;;1999.90;999.90;;;9.70;99.90;;;;;;5031339;28;20454;-69
2021/01/29 08:38:52;;;;;;;1999.90;999.90;;;9.70;99.90;;;;;;5031454;28;21047;-70
2021/01/29 08:41:45;;;;;;;1999.90;999.90;;;9.80;99.90;;;;;;5031487;28;20938;-70
2021/01/29 08:44:30;;;;;;;1999.90;999.90;;;9.80;99.90;;;;;;5031373;28;20392;-70
2021/01/29 08:47:07;;;;;;;1999.90;999.90;;;9.80;99.90;;;;;;5031417;28;20396;-70
2021/01/29 08:49:51;;;;;;;1999.90;999.90;;;9.90;99.90;;;;;;5031231;28;20407;-69
2021/01/29 08:52:28;;;;;;;1999.90;999.90;;;9.90;99.90;;;;;;5031412;28;20404;-69
2021/01/29 08:55:05;;;;;;;1999.90;999.90;;;9.90;99.90;;;;;;5031203;28;20517;-70
2021/01/29 08:57:40;;;;;;;1999.90;999.90;;;9.90;99.90;;;;;;5031207;28;20403;-69
2021/01/29 09:00:20;;;;;;;1999.90;999.90;;;9.90;99.90;;;;;;5030897;28;20401;-70
2021/01/29 09:03:01;;;;;;;1999.90;999.90;;;10.00;99.90;;;;;;5031188;28;20437;-70
2021/01/29 09:05:30;;;;;;;1999.90;999.90;;;10.00;99.90;;;;;;5031063;28;20418;-69
2021/01/29 09:08:01;;;;;;;1999.90;999.90;;;10.00;99.90;;;;;;5031018;28;20826;-69
2021/01/29 09:10:47;;;;;;;1999.90;999.90;;;10.10;99.90;;;;;;5030963;28;20430;-69
2021/01/29 09:13:17;;;;;;;1999.90;999.90;;;10.00;99.90;;;;;;5031130;28;20932;-69
2021/01/29 09:15:45;;;;;;;1999.90;999.90;;;10.10;99.90;;;;;;5030825;28;20467;-70
2021/01/29 09:18:32;;;;;;;1999.90;999.90;;;10.10;99.90;;;;;;5030800;28;20430;-69
2021/01/29 09:21:16;;;;;;;1999.90;999.90;;;10.00;99.90;;;;;;5030954;28;20407;-70
2021/01/29 09:23:53;;;;;;;1999.90;999.90;;;10.00;99.90;;;;;;5031066;28;20408;-70
2021/01/29 09:26:48;;;;;;;1999.90;999.90;;;9.90;99.90;;;;;;5030891;28;20513;-70
2021/01/29 09:29:38;;;;;;;1999.90;999.90;;;9.90;99.90;;;;;;5028450;28;20524;-70
2021/01/29 09:32:15;;;;;;;1999.90;999.90;;;10.00;99.90;;;;;;5031027;28;20815;-70
2021/01/29 09:34:53;;;;;;;1999.90;999.90;;;10.00;99.90;;;;;;5033039;28;20557;-69
2021/01/29 09:37:25;;;;;;;1999.90;999.90;;;10.00;99.90;;;;;;5036197;28;20884;-69
2021/01/29 09:39:54;;;;;;;1999.90;999.90;;;10.00;99.90;;;;;;5035327;28;20407;-69
2021/01/29 09:42:40;;;;;;;1999.90;999.90;;;10.00;99.90;;;;;;5035534;28;20489;-69
2021/01/29 09:45:14;;;;;;;1999.90;999.90;;;10.00;99.90;;;;;;5027818;28;20439;-69
2021/01/29 09:47:43;;;;;;;1999.90;999.90;;;10.00;99.90;;;;;;5035338;28;20410;-69
2021/01/29 09:50:16;;;;;;;1999.90;999.90;;;10.00;99.90;;;;;;5035100;28;20410;-69
2021/01/29 09:53:01;;;;;;;1999.90;999.90;;;10.00;99.90;;;;;;5035416;28;20406;-69
2021/01/29 09:55:58;;;;;;;1999.90;999.90;;;10.10;99.90;;;;;;5035329;28;20544;-69
2021/01/29 09:59:02;;;;;;;1999.90;999.90;;;10.10;99.90;;;;;;5035057;28;21015;-69
2021/01/29 10:01:36;;;;;;;1999.90;999.90;;;10.10;99.90;;;;;;5014152;28;20410;-69
2021/01/29 10:04:09;;;;;;;1999.90;999.90;;;10.10;99.90;;;;;;5035078;28;20503;-69
2021/01/29 10:06:44;;;;;;;1999.90;999.90;;;10.10;99.90;;;;;;5035221;28;20400;-69
2021/01/29 10:09:17;;;;;;;1999.90;999.90;;;10.10;99.90;;;;;;5034955;28;20399;-69
2021/01/29 10:11:57;;;;;;;1999.90;999.90;;;10.20;99.90;;;;;;5035010;28;20409;-69
2021/01/29 10:14:39;;;;;;;1999.90;999.90;;;10.30;99.90;;;;;;5034981;28;21020;-69
2021/01/29 10:17:17;;;;;;;1999.90;999.90;;;10.30;99.90;;;;;;5035117;28;20393;-69
2021/01/29 10:19:52;;;;;;;1999.90;999.90;;;10.40;99.90;;;;;;5034831;28;20451;-69
2021/01/29 10:22:27;;;;;;;1999.90;999.90;;;10.40;99.90;;;;;;5034912;28;20437;-69
2021/01/29 10:25:20;;;;;;;1999.90;999.90;;;10.40;99.90;;;;;;5034574;28;20439;-69
2021/01/29 10:27:50;;;;;;;1999.90;999.90;;;10.40;99.90;;;;;;5034699;28;20407;-69
2021/01/29 10:30:31;;;;;;;1999.90;999.90;;;10.50;99.90;;;;;;5034889;28;20416;-69
2021/01/29 10:33:06;;;;;;;1999.90;999.90;;;10.50;99.90;;;;;;5035785;28;20455;-69
2021/01/29 10:35:41;;;;;;;1999.90;999.90;;;10.50;99.90;;;;;;5081997;22;20492;-67
2021/01/29 10:38:19;;;;;;;1999.90;999.90;;;10.50;99.90;;;;;;5053636;28;20769;-67
2021/01/29 10:41:01;;;;;;;1999.90;999.90;;;10.50;99.90;;;;;;5053811;28;20789;-67
2021/01/29 10:43:27;;;;;;;1999.90;999.90;;;10.60;99.90;;;;;;5053763;28;20935;-67
2021/01/29 10:46:07;;;;;;;1999.90;999.90;;;10.70;99.90;;;;;;5053593;28;20458;-66
2021/01/29 10:48:52;;;;;;;1999.90;999.90;;;10.70;99.90;;;;;;5053197;28;20177;-67
2021/01/29 10:51:29;;;;;;;1999.90;999.90;;;10.70;99.90;;;;;;5071089;28;20836;-66
2021/01/29 10:54:01;;;;;;;1999.90;999.90;;;10.70;99.90;;;;;;5071301;28;20408;-68
2021/01/29 10:56:50;;;;;;;1999.90;999.90;;;10.70;99.90;;;;;;5070961;28;20480;-66
2021/01/29 10:59:42;;;;;;;1999.90;999.90;;;10.70;99.90;;;;;;5070972;28;20439;-65
2021/01/29 11:02:13;;;;;;;1999.90;999.90;;;10.80;99.90;;;;;;5071321;28;20412;-66
2021/01/29 11:04:41;;;;;;;1999.90;999.90;;;10.70;99.90;;;;;;5070407;28;20397;-66
2021/01/29 11:07:21;;;;;;;1999.90;999.90;;;10.80;99.90;;;;;;5070773;28;20435;-66
2021/01/29 11:10:14;;;;;;;1999.90;999.90;;;10.70;99.90;;;;;;5070680;28;20439;-64
2021/01/29 11:12:51;;;;;;;1999.90;999.90;;;10.70;99.90;;;;;;5071256;28;20435;-65
2021/01/29 11:15:35;;;;;;;1999.90;999.90;;;10.80;99.90;;;;;;5071189;28;20543;-65
2021/01/29 11:18:23;;;;;;;1999.90;999.90;;;10.80;99.90;;;;;;5070415;28;20406;-68
2021/01/29 11:20:51;;;;;;;1999.90;999.90;;;10.80;99.90;;;;;;5071039;28;20397;-66
2021/01/29 11:23:41;;;;;;;1999.90;999.90;;;10.80;99.90;;;;;;5071049;28;20387;-66
2021/01/29 11:26:12;;;;;;;1999.90;999.90;;;10.60;99.90;;;;;;5070268;28;20426;-67
2021/01/29 11:29:12;;;;;;;1999.90;999.90;;;10.40;99.90;;;;;;5070813;28;20397;-67
2021/01/29 11:32:08;;;;;;;1999.90;999.90;;;10.30;99.90;;;;;;5071078;28;20398;-67
2021/01/29 11:34:36;;;;;;;1999.90;999.90;;;10.10;99.90;;;;;;5070967;28;20506;-66
2021/01/29 11:37:18;;;;;;;1999.90;999.90;;;9.80;99.90;;;;;;5070238;28;20495;-68
2021/01/29 11:39:54;;;;;;;1999.90;999.90;;;9.70;99.90;;;;;;5070244;28;21240;-66
2021/01/29 11:42:43;;;;;;;1999.90;999.90;;;9.70;99.90;;;;;;5070611;28;20413;-66
2021/01/29 11:45:18;;;;;;;1999.90;999.90;;;9.70;99.90;;;;;;5070608;28;20426;-66
2021/01/29 11:48:07;;;;;;;1999.90;999.90;;;9.90;99.90;;;;;;5070859;28;20417;-66
2021/01/29 11:50:49;;;;;;;1999.90;999.90;;;10.10;99.90;;;;;;5070913;28;20456;-67
2021/01/29 11:53:34;;;;;;;1999.90;999.90;;;10.30;99.90;;;;;;5071284;28;20409;-70
2021/01/29 11:56:20;;;;;;;1999.90;999.90;;;11.10;99.90;;;;;;5069502;28;20471;-69
2021/01/29 11:59:03;;;;;;;1999.90;999.90;;;11.90;99.90;;;;;;5069806;28;20389;-69
2021/01/29 12:01:35;;;;;;;1999.90;999.90;;;12.20;99.90;;;;;;5070249;28;20400;-69
2021/01/29 12:04:24;;;;;;;1999.90;999.90;;;12.10;99.90;;;;;;5070050;28;20458;-68
2021/01/29 12:07:11;;;;;;;1999.90;999.90;;;12.00;99.90;;;;;;5070049;28;20432;-67
2021/01/29 12:09:52;;;;;;;1999.90;999.90;;;11.50;99.90;;;;;;5069449;28;20932;-68
2021/01/29 12:12:28;;;;;;;1999.90;999.90;;;11.20;99.90;;;;;;5070205;28;20394;-69
2021/01/29 12:15:16;;;;;;;1999.90;999.90;;;11.10;99.90;;;;;;5070114;28;20905;-67
2021/01/29 12:17:55;;;;;;;1999.90;999.90;;;10.80;99.90;;;;;;5069178;28;20397;-68
2021/01/29 12:20:26;;;;;;;1999.90;999.90;;;10.50;99.90;;;;;;5069770;28;20917;-69
2021/01/29 12:23:43;;;;;;;1999.90;999.90;;;10.20;99.90;;;;;;5069917;28;20411;-66
2021/01/29 12:26:15;;;;;;;1999.90;999.90;;;10.00;99.90;;;;;;5024267;28;20425;-65
2021/01/29 12:29:18;;;;;;;1999.90;999.90;;;9.80;99.90;;;;;;5069917;28;20401;-66
2021/01/29 12:31:51;;;;;;;1999.90;999.90;;;9.40;99.90;;;;;;5071509;28;20415;-66
2021/01/29 12:34:27;;;;;;;1999.90;999.90;;;9.20;99.90;;;;;;5073297;28;20492;-65
2021/01/29 12:37:03;;;;;;;1999.90;999.90;;;9.00;99.90;;;;;;5072626;28;20456;-66
2021/01/29 12:39:42;;;;;;;1999.90;999.90;;;8.90;99.90;;;;;;5071426;28;20815;-66
2021/01/29 12:42:24;;;;;;;1999.90;999.90;;;8.80;99.90;;;;;;5072120;28;20408;-67
2021/01/29 12:45:04;;;;;;;1999.90;999.90;;;9.50;99.90;;;;;;5071931;28;20415;-69
2021/01/29 12:47:58;;;;;;;1999.90;999.90;;;10.50;99.90;;;;;;5072474;28;20761;-66
2021/01/29 12:50:42;;;;;;;1999.90;999.90;;;11.50;99.90;;;;;;5072372;28;20411;-66
2021/01/29 12:53:15;;;;;;;1999.90;999.90;;;12.30;99.90;;;;;;5071305;28;20421;-65
2021/01/29 12:55:53;;;;;;;1999.90;999.90;;;12.60;99.90;;;;;;5071642;28;20500;-64
2021/01/29 12:58:21;;;;;;;1999.90;999.90;;;12.70;99.90;;;;;;5072409;28;20500;-65
2021/01/29 13:00:46;;;;;;;1999.90;999.90;;;13.10;99.90;;;;;;5072958;28;20398;-64
2021/01/29 13:03:21;;;;;;;1999.90;999.90;;;13.50;99.90;;;;;;5072979;28;20404;-65
2021/01/29 13:06:00;;;;;;;1999.90;999.90;;;13.10;99.90;;;;;;5072156;28;20516;-66